الصفحة الرئيسية
METAR-TAF:

METAR-TAF

مطار :

Bullhead City, أريزونا, الولايات المتحدة

دائرة عرض: 35-09-27N, خط طول: 114-33-34W, ارتفاع: 212 متر

مراقبة الطقس الحالي

تاريخ ووقت الإصدار 1ساعة و 51 دقيقة قبل الساعة 09:20UTC
ريح 19 عقدة من الشمال/الشمال الشرقي تتزايد حتى 24 عقدة
درجة الحرارة 29°درجة مئوية
الرطوبة 11%
ضغط 1015 hPa
الرؤية: 16.1 كم
سماء صافية

METAR: KIFP 290920Z AUTO 02019G24KT 10SM CLR 29/M04 A2996 RMK AO2

زمن: 04:11 (11:11 UTC)

توقعات

تاريخ ووقت الإصدار 5ساعات و 35 دقيقة قبل الساعة 05:36UTC
التوقعات صالحة من29 الساعة 06 UTC إلى 30 الساعة 06 UTC
ريح 15 عقدة من الشمال
الرؤية: 10 كم
سماء صافية
من 29 الساعة 2100 UTC
ريح 7 عقدة من الغرب
الرؤية: 10 كم
سماء صافية
من 30 الساعة 0200 UTC
ريح 7 عقدة من الشمال/الشمال الشرقي
الرؤية: 10 كم
سماء صافية

TAF: KIFP 290536Z 2906/3006 01015KT P6SM SKC FM292100 28007KT P6SM SKC FM300200 03007KT P6SM SKC AMD NOT SKED TIL 291500

أرصاد الطقس والتوقعات من أكثر من 4000 مطار (تقارير الطقس للمطار METAR والتنبؤ بالطقس بالمطارTAF).

المحطات المتاحة هي النقط الصفراء والحمراء على الخريطة.

حرك المؤشر فوق النقطة لمعرفة اسم المحطة.

ثم انقر لمعرفة أرصاد وتوقعات الطقس.

لتغيير الخارطة: اضغط على الأزرار الخضراء مع رمز الصليب الأسود للتكبير. على الزر الأخضر مع شرطة للتصغير، أو على الأسهم الخضراء للخرائط المجاورة.


METAR-TAF: